createdAt,value
2023-04-01T00:02:05.898Z,8.79
2023-04-01T00:04:59.702Z,8.81
2023-04-01T00:07:44.631Z,8.83
2023-04-01T00:10:29.788Z,8.86
2023-04-01T00:13:15.860Z,8.88
2023-04-01T00:16:03.334Z,8.90
2023-04-01T00:18:54.606Z,8.88
2023-04-01T00:21:41.230Z,8.88
2023-04-01T00:24:27.837Z,8.88
2023-04-01T00:27:13.633Z,8.95
2023-04-01T00:29:59.280Z,8.97
2023-04-01T00:32:44.598Z,8.94
2023-04-01T00:35:30.267Z,8.89
2023-04-01T00:38:17.271Z,8.83
2023-04-01T00:41:02.698Z,8.79
2023-04-01T00:43:51.160Z,8.79
2023-04-01T00:46:37.219Z,8.78
2023-04-01T00:52:37.680Z,8.84
2023-04-01T00:55:24.989Z,8.81
2023-04-01T00:58:15.143Z,8.75
2023-04-01T01:01:01.267Z,8.73
2023-04-01T01:03:46.588Z,8.71
2023-04-01T01:06:39.620Z,8.74
2023-04-01T01:09:32.478Z,8.75
2023-04-01T01:12:40.608Z,8.75
2023-04-01T01:18:25.884Z,8.69
2023-04-01T01:21:29.836Z,8.71
2023-04-01T01:24:33.655Z,8.76
2023-04-01T01:27:21.158Z,8.79
2023-04-01T01:30:32.421Z,8.85
2023-04-01T01:33:38.702Z,8.88
2023-04-01T01:36:31.322Z,8.88
2023-04-01T01:39:17.864Z,8.88
2023-04-01T01:42:08.769Z,8.90
2023-04-01T01:44:56.914Z,8.94
2023-04-01T01:47:43.260Z,8.97
2023-04-01T01:50:29.500Z,9.02
2023-04-01T01:53:15.284Z,9.05
2023-04-01T01:56:01.076Z,9.04
2023-04-01T01:58:49.489Z,9.04
2023-04-01T02:01:41.796Z,9.08
2023-04-01T02:04:27.788Z,9.11
2023-04-01T02:07:24.743Z,9.14
2023-04-01T02:13:02.150Z,9.19
2023-04-01T02:15:49.145Z,9.16
2023-04-01T02:18:37.751Z,9.18
2023-04-01T02:21:26.854Z,9.21
2023-04-01T02:24:15.746Z,9.26
2023-04-01T02:27:23.589Z,9.31
2023-04-01T02:30:09.759Z,9.32
2023-04-01T02:33:03.500Z,9.35
2023-04-01T02:45:26.329Z,9.40
2023-04-01T02:48:13.615Z,9.34
2023-04-01T02:51:00.005Z,9.34
2023-04-01T02:53:46.600Z,9.33
2023-04-01T02:59:10.878Z,9.35
2023-04-01T03:01:56.255Z,9.34
2023-04-01T03:04:41.729Z,9.32
2023-04-01T03:07:26.750Z,9.29
2023-04-01T03:10:12.077Z,9.28
2023-04-01T03:15:39.376Z,9.29
2023-04-01T03:18:26.122Z,9.28
2023-04-01T03:27:19.271Z,9.25
2023-04-01T03:30:07.023Z,9.24
2023-04-01T03:33:18.126Z,9.20
2023-04-01T03:36:06.665Z,9.19
2023-04-01T03:38:52.070Z,9.17
2023-04-01T03:41:40.897Z,9.14
2023-04-01T03:44:26.097Z,9.14
2023-04-01T03:47:11.037Z,9.09
2023-04-01T03:49:56.127Z,9.01
2023-04-01T03:52:41.463Z,8.94
2023-04-01T03:55:26.665Z,8.91
2023-04-01T03:58:11.816Z,8.90
2023-04-01T04:04:13.941Z,8.92
2023-04-01T04:06:59.795Z,8.89
2023-04-01T04:09:45.270Z,8.86
2023-04-01T04:12:30.705Z,8.78
2023-04-01T04:15:16.146Z,8.76
2023-04-01T04:21:06.432Z,8.77
2023-04-01T04:23:53.008Z,8.77
2023-04-01T04:26:37.976Z,8.72
2023-04-01T04:29:23.293Z,8.69
2023-04-01T04:32:08.496Z,8.67
2023-04-01T04:34:53.854Z,8.67
2023-04-01T04:37:38.817Z,8.65
2023-04-01T04:43:17.766Z,8.49
2023-04-01T04:46:10.852Z,8.61
2023-04-01T04:48:56.247Z,8.62
2023-04-01T04:51:41.619Z,8.62
2023-04-01T04:54:27.174Z,8.59
2023-04-01T04:57:12.673Z,8.56
2023-04-01T04:59:57.627Z,8.55
2023-04-01T05:03:00.577Z,8.57
2023-04-01T05:05:54.583Z,8.62
2023-04-01T05:08:43.303Z,8.65
2023-04-01T05:20:50.347Z,8.56
2023-04-01T05:26:22.716Z,8.58
2023-04-01T05:32:08.162Z,8.53
2023-04-01T05:34:54.299Z,8.54
2023-04-01T05:37:39.595Z,8.53
2023-04-01T05:40:24.854Z,8.52
2023-04-01T05:43:10.411Z,8.53
2023-04-01T05:46:28.079Z,8.56
2023-04-01T05:49:14.398Z,8.56
2023-04-01T05:51:59.385Z,8.58
2023-04-01T05:54:44.982Z,8.58
2023-04-01T05:57:30.718Z,8.55
2023-04-01T06:00:16.892Z,8.62
2023-04-01T06:03:03.036Z,8.63
2023-04-01T06:05:49.494Z,8.64
2023-04-01T06:08:34.760Z,8.64
2023-04-01T06:18:07.394Z,8.74
2023-04-01T06:21:28.265Z,8.74
2023-04-01T06:24:33.942Z,8.75
2023-04-01T06:27:44.399Z,8.78
2023-04-01T06:36:51.460Z,8.89
2023-04-01T06:39:43.550Z,8.94
2023-04-01T06:42:47.632Z,9.00
2023-04-01T06:45:45.234Z,9.06
2023-04-01T06:52:04.287Z,9.14
2023-04-01T06:54:56.676Z,9.20
2023-04-01T07:10:01.721Z,9.48
2023-04-01T07:26:33.434Z,9.82
2023-04-01T07:46:18.257Z,10.16
2023-04-01T08:09:22.197Z,10.44
2023-04-01T08:12:32.566Z,10.48
2023-04-01T08:21:28.890Z,10.57
2023-04-01T08:37:31.174Z,10.93
2023-04-01T08:40:40.741Z,10.96
2023-04-01T08:49:54.117Z,11.10
2023-04-01T09:08:36.197Z,11.50
2023-04-01T09:21:37.333Z,11.89
2023-04-01T09:30:49.007Z,11.79
2023-04-01T10:39:37.466Z,13.79
2023-04-01T10:55:23.520Z,14.72
2023-04-01T11:15:00.134Z,14.76
2023-04-01T11:21:59.487Z,14.28
2023-04-01T11:28:04.805Z,13.94
2023-04-01T11:31:17.630Z,13.70
2023-04-01T11:34:02.636Z,13.46
2023-04-01T11:49:52.973Z,12.85
2023-04-01T12:02:24.508Z,13.08
2023-04-01T12:05:31.776Z,13.04
2023-04-01T12:08:38.984Z,12.95
2023-04-01T12:12:04.702Z,12.78
2023-04-01T12:18:32.873Z,12.55
2023-04-01T12:24:33.274Z,12.45
2023-04-01T12:27:24.701Z,12.46
2023-04-01T12:30:27.382Z,12.52
2023-04-01T12:39:27.067Z,12.81
2023-04-01T12:45:34.352Z,13.11
2023-04-01T12:48:35.315Z,13.60
2023-04-01T12:51:28.228Z,14.01
2023-04-01T12:57:15.657Z,14.30
2023-04-01T13:09:05.827Z,14.20
2023-04-01T13:12:10.511Z,13.98
2023-04-01T13:15:26.171Z,13.67
2023-04-01T13:18:12.063Z,13.33
2023-04-01T13:21:17.047Z,13.10
2023-04-01T13:24:20.753Z,12.89
2023-04-01T13:27:18.693Z,12.69
2023-04-01T13:30:27.392Z,12.50
2023-04-01T13:33:29.880Z,12.30
2023-04-01T13:36:30.292Z,12.10
2023-04-01T13:39:43.347Z,11.94
2023-04-01T13:42:35.707Z,11.85
2023-04-01T13:48:41.961Z,11.74
2023-04-01T13:51:33.797Z,11.69
2023-04-01T13:54:44.340Z,11.61
2023-04-01T14:00:12.086Z,11.40
2023-04-01T14:03:42.680Z,11.24
2023-04-01T14:10:12.685Z,11.24
2023-04-01T14:13:08.888Z,11.19
2023-04-01T14:28:38.042Z,10.98
2023-04-01T14:31:45.019Z,10.95
2023-04-01T14:34:56.845Z,10.93
2023-04-01T14:38:20.435Z,10.88
2023-04-01T14:41:26.831Z,10.84
2023-04-01T14:44:37.032Z,10.83
2023-04-01T14:47:31.798Z,10.81
2023-04-01T14:53:25.520Z,10.76
2023-04-01T14:56:11.699Z,10.77
2023-04-01T14:58:58.819Z,10.78
2023-04-01T15:01:49.856Z,10.83
2023-04-01T15:04:53.103Z,10.86
2023-04-01T15:08:26.323Z,10.88
2023-04-01T15:11:19.093Z,10.91
2023-04-01T15:14:38.787Z,10.97
2023-04-01T15:17:30.504Z,11.05
2023-04-01T15:20:30.706Z,11.11
2023-04-01T15:23:37.079Z,11.15
2023-04-01T15:26:54.542Z,11.21
2023-04-01T15:30:07.094Z,11.33
2023-04-01T15:33:17.314Z,11.52
2023-04-01T15:36:13.274Z,11.70
2023-04-01T15:39:15.870Z,11.82
2023-04-01T15:42:34.235Z,11.93
2023-04-01T15:48:45.169Z,12.08
2023-04-01T15:51:57.520Z,12.14
2023-04-01T15:55:10.246Z,12.21
2023-04-01T15:57:58.072Z,12.24
2023-04-01T16:03:51.312Z,12.18
2023-04-01T16:09:43.890Z,12.10
2023-04-01T16:12:50.609Z,12.05
2023-04-01T16:16:03.837Z,11.97
2023-04-01T16:22:22.839Z,11.75
2023-04-01T16:25:48.209Z,11.68
2023-04-01T16:29:11.075Z,11.63
2023-04-01T16:32:28.012Z,11.57
2023-04-01T16:35:47.955Z,11.49
2023-04-01T16:45:24.041Z,11.20
2023-04-01T16:48:40.138Z,11.07
2023-04-01T16:54:58.178Z,11.00
2023-04-01T16:57:56.330Z,10.92
2023-04-01T17:03:51.601Z,10.77
2023-04-01T17:09:56.452Z,10.72
2023-04-01T17:13:00.687Z,10.72
2023-04-01T17:16:10.703Z,10.70
2023-04-01T17:19:01.839Z,10.65
2023-04-01T17:22:02.381Z,10.62
2023-04-01T17:30:55.282Z,10.55
2023-04-01T17:40:17.790Z,10.55
2023-04-01T17:43:27.565Z,10.52
2023-04-01T17:46:35.253Z,10.47
2023-04-01T17:52:17.365Z,10.48
2023-04-01T18:02:08.637Z,10.46
2023-04-01T18:05:12.951Z,10.44
2023-04-01T18:08:09.477Z,10.45
2023-04-01T18:14:04.520Z,10.48
2023-04-01T18:20:02.716Z,10.45
2023-04-01T18:22:58.429Z,10.46
2023-04-01T18:25:49.544Z,10.46
2023-04-01T18:28:53.207Z,10.46
2023-04-01T18:38:05.102Z,10.35
2023-04-01T18:41:10.051Z,10.28
2023-04-01T18:44:13.832Z,10.33
2023-04-01T18:47:10.967Z,10.33
2023-04-01T18:53:24.359Z,10.25
2023-04-01T18:56:26.020Z,10.23
2023-04-01T18:59:20.377Z,10.18
2023-04-01T19:05:10.801Z,10.16
2023-04-01T19:08:23.711Z,10.13
2023-04-01T19:11:41.910Z,10.16
2023-04-01T19:14:51.696Z,10.12
2023-04-01T19:18:18.294Z,10.07
2023-04-01T19:25:17.938Z,9.97
2023-04-01T19:28:33.282Z,9.95
2023-04-01T19:37:22.970Z,9.82
2023-04-01T19:40:35.892Z,9.80
2023-04-01T19:43:24.160Z,9.78
2023-04-01T19:46:27.870Z,9.75
2023-04-01T19:49:13.269Z,9.71
2023-04-01T20:04:42.544Z,9.59
2023-04-01T20:07:41.692Z,9.56
2023-04-01T20:13:34.771Z,9.51
2023-04-01T20:16:22.833Z,9.47
2023-04-01T20:19:10.710Z,9.48
2023-04-01T20:25:14.711Z,9.50
2023-04-01T20:28:33.089Z,9.49
2023-04-01T20:31:42.649Z,9.47
2023-04-01T20:38:04.445Z,9.41
2023-04-01T20:50:09.777Z,9.43
2023-04-01T20:53:16.574Z,9.42
2023-04-01T20:56:40.804Z,9.38
2023-04-01T21:02:21.207Z,9.36
2023-04-01T21:08:41.285Z,9.38
2023-04-01T21:11:56.622Z,9.35
2023-04-01T21:14:41.793Z,9.32
2023-04-01T21:17:39.360Z,9.32
2023-04-01T21:20:34.811Z,9.33
2023-04-01T21:23:29.158Z,9.32
2023-04-01T21:30:24.989Z,9.28
2023-04-01T21:33:48.987Z,9.25
2023-04-01T21:37:09.520Z,9.18
2023-04-01T21:40:24.878Z,9.25
2023-04-01T21:43:10.609Z,9.23
2023-04-01T21:46:20.731Z,9.20
2023-04-01T21:52:42.926Z,9.12
2023-04-01T21:55:59.419Z,9.09
2023-04-01T21:59:01.852Z,9.10
2023-04-01T22:01:59.329Z,9.10
2023-04-01T22:04:47.436Z,9.09
2023-04-01T22:14:08.961Z,8.93
2023-04-01T22:16:58.418Z,8.90
2023-04-01T22:20:09.627Z,8.89
2023-04-01T22:23:01.028Z,8.87
2023-04-01T22:26:00.120Z,8.85
2023-04-01T22:28:50.758Z,8.81
2023-04-01T22:31:52.795Z,8.75
2023-04-01T22:34:48.038Z,8.75
2023-04-01T22:37:33.172Z,8.75
2023-04-01T22:43:07.616Z,8.70
2023-04-01T22:46:44.306Z,8.72
2023-04-01T22:49:36.167Z,8.68
2023-04-01T22:52:37.782Z,8.64
2023-04-01T22:55:29.821Z,8.61
2023-04-01T22:58:24.217Z,8.60
2023-04-01T23:01:17.257Z,8.62
2023-04-01T23:04:05.446Z,8.61
2023-04-01T23:06:58.019Z,8.58
2023-04-01T23:09:44.259Z,8.56
2023-04-01T23:12:33.338Z,8.52
2023-04-01T23:24:51.256Z,8.45
2023-04-01T23:27:50.057Z,8.43
2023-04-01T23:30:38.216Z,8.39
2023-04-01T23:33:24.821Z,8.35
2023-04-01T23:36:15.967Z,8.30
2023-04-01T23:39:05.848Z,8.29
2023-04-01T23:44:57.238Z,8.29
2023-04-01T23:47:43.355Z,8.26
2023-04-01T23:50:28.712Z,8.23
2023-04-01T23:53:21.355Z,8.16
2023-04-01T23:56:06.705Z,8.08
2023-04-01T23:58:56.445Z,8.00
